Time;durP1;ratioP1;P1;durP2;ratioP2;P2;SDS_P1;SDS_P2;PMS_P1;PMS_P2;Temp;Humidity;BMP_temperature;BMP_pressure;BME280_temperature;BME280_humidity;BME280_pressure;Samples;Min_cycle;Max_cycle;Signal;HPM_P1;HPM_P2
2022/05/19 03:01:25;;;;;;;41.17;26.85;;;15.90;99.90;;;;;;5505089;23;20482;-81
2022/05/19 03:03:52;;;;;;;37.50;25.77;;;15.90;99.90;;;;;;4959294;28;20078;-82
2022/05/19 03:06:19;;;;;;;42.72;27.88;;;15.90;99.90;;;;;;4959118;28;20054;-81
2022/05/19 03:08:45;;;;;;;38.90;25.95;;;15.90;99.90;;;;;;4959092;28;20054;-82
2022/05/19 03:11:11;;;;;;;37.00;25.95;;;15.90;99.90;;;;;;4959029;28;20411;-83
2022/05/19 03:13:36;;;;;;;43.13;28.17;;;15.90;99.90;;;;;;4958956;28;20141;-82
2022/05/19 03:16:07;;;;;;;48.25;27.73;;;15.90;99.90;;;;;;4976300;28;20043;-81
2022/05/19 03:18:33;;;;;;;44.67;27.13;;;15.90;99.90;;;;;;4943065;28;20395;-81
2022/05/19 03:20:58;;;;;;;41.85;27.55;;;15.90;99.90;;;;;;4959077;28;20047;-82
2022/05/19 03:23:24;;;;;;;51.28;30.40;;;15.90;99.90;;;;;;4958598;28;20574;-82
2022/05/19 03:25:49;;;;;;;47.72;29.23;;;15.90;99.90;;;;;;4959075;28;20038;-80
2022/05/19 03:28:15;;;;;;;42.30;28.15;;;15.80;99.90;;;;;;4976169;28;20054;-82
2022/05/19 03:30:42;;;;;;;44.72;29.10;;;15.80;99.90;;;;;;4959121;28;20038;-83
2022/05/19 03:33:08;;;;;;;42.42;29.33;;;15.80;99.90;;;;;;4958608;28;20038;-82
2022/05/19 03:35:35;;;;;;;48.40;29.27;;;15.80;99.90;;;;;;4958459;28;20042;-83
2022/05/19 03:38:00;;;;;;;46.70;29.60;;;15.80;99.90;;;;;;4958663;28;20364;-83
2022/05/19 03:40:28;;;;;;;47.00;30.50;;;15.90;99.90;;;;;;4942250;28;20121;-82
2022/05/19 03:42:53;;;;;;;43.83;30.33;;;15.90;99.90;;;;;;4958788;28;20574;-82
2022/05/19 03:45:19;;;;;;;49.25;32.42;;;15.90;99.90;;;;;;4975555;28;20050;-82
2022/05/19 03:47:45;;;;;;;50.97;33.50;;;15.90;99.90;;;;;;4958119;28;20093;-82
2022/05/19 03:50:10;;;;;;;57.70;34.17;;;15.90;99.90;;;;;;4975602;28;20403;-83
2022/05/19 03:52:41;;;;;;;57.10;34.13;;;15.90;99.90;;;;;;4958059;28;20046;-83
2022/05/19 03:55:08;;;;;;;52.50;34.53;;;16.00;99.90;;;;;;4957944;28;20049;-82
2022/05/19 03:57:34;;;;;;;52.80;34.53;;;16.00;99.90;;;;;;4958169;28;20058;-82
2022/05/19 04:00:00;;;;;;;54.75;34.92;;;16.00;99.90;;;;;;4975381;28;20046;-84
2022/05/19 04:02:25;;;;;;;54.15;35.30;;;16.00;99.90;;;;;;4957792;28;20117;-83
2022/05/19 04:04:51;;;;;;;60.50;36.65;;;16.00;99.90;;;;;;4957814;28;20050;-83
2022/05/19 04:07:17;;;;;;;59.58;35.15;;;16.00;99.90;;;;;;4975169;28;20423;-82
2022/05/19 04:09:42;;;;;;;55.45;35.13;;;16.00;99.90;;;;;;4975153;28;20038;-82
2022/05/19 04:12:09;;;;;;;55.78;36.30;;;16.10;99.90;;;;;;4957768;28;20050;-82
2022/05/19 04:14:36;;;;;;;58.80;36.50;;;16.10;99.90;;;;;;4957623;28;20509;-82
2022/05/19 04:17:01;;;;;;;56.22;35.67;;;16.10;99.90;;;;;;4957592;28;20085;-83
2022/05/19 04:19:27;;;;;;;59.58;37.55;;;16.10;99.90;;;;;;4974908;28;20075;-82
2022/05/19 04:21:53;;;;;;;57.25;37.55;;;16.20;99.90;;;;;;4974834;28;20420;-81
2022/05/19 04:24:18;;;;;;;65.07;38.03;;;16.20;99.90;;;;;;4957600;28;20053;-81
2022/05/19 04:26:44;;;;;;;55.83;36.55;;;16.30;99.90;;;;;;4957513;28;20042;-82
2022/05/19 04:29:10;;;;;;;58.60;38.33;;;16.30;99.90;;;;;;4975134;28;20054;-82
2022/05/19 04:31:36;;;;;;;53.70;36.25;;;16.30;99.90;;;;;;4957376;28;20049;-82
2022/05/19 04:34:04;;;;;;;53.40;37.00;;;16.40;99.90;;;;;;4957340;28;20085;-82
2022/05/19 04:36:30;;;;;;;53.03;34.95;;;16.40;99.90;;;;;;4974813;28;20463;-82
2022/05/19 04:38:55;;;;;;;48.78;33.83;;;16.50;99.90;;;;;;4958042;28;20039;-82
2022/05/19 04:41:21;;;;;;;48.10;33.17;;;16.60;99.90;;;;;;4957259;28;20082;-81
2022/05/19 04:43:46;;;;;;;49.17;31.60;;;16.70;99.90;;;;;;4957616;28;20051;-82
2022/05/19 04:46:12;;;;;;;44.78;31.92;;;16.80;99.90;;;;;;4974583;28;20428;-82
2022/05/19 04:48:38;;;;;;;49.97;32.40;;;16.90;99.90;;;;;;4974818;28;20053;-81
2022/05/19 04:51:04;;;;;;;45.92;30.52;;;17.00;99.90;;;;;;4957483;28;20117;-80
2022/05/19 04:53:30;;;;;;;45.58;29.80;;;17.00;99.90;;;;;;4957200;28;20395;-80
2022/05/19 04:55:56;;;;;;;46.63;31.42;;;17.10;99.90;;;;;;4957177;28;20043;-81
2022/05/19 04:58:22;;;;;;;41.38;28.58;;;17.10;99.90;;;;;;4957170;28;20039;-81
2022/05/19 05:00:49;;;;;;;42.85;28.67;;;17.10;99.90;;;;;;4957045;28;20050;-79
2022/05/19 05:03:15;;;;;;;46.55;30.33;;;17.30;99.90;;;;;;4957135;28;20047;-81
2022/05/19 05:05:41;;;;;;;39.00;27.13;;;17.30;99.90;;;;;;4941059;28;20053;-80
2022/05/19 05:08:06;;;;;;;42.25;27.20;;;17.40;99.90;;;;;;4957095;28;20050;-81
2022/05/19 05:10:32;;;;;;;39.42;26.55;;;17.40;99.90;;;;;;4956171;28;20395;-81
2022/05/19 05:13:04;;;;;;;38.53;25.88;;;17.50;99.90;;;;;;4957186;28;20070;-80
2022/05/19 05:15:30;;;;;;;37.33;25.35;;;17.60;99.90;;;;;;4974950;28;20054;-80
2022/05/19 05:17:55;;;;;;;33.83;24.58;;;17.70;99.90;;;;;;4957526;28;20038;-80
2022/05/19 05:20:21;;;;;;;36.15;23.55;;;17.70;99.90;;;;;;4941317;28;20042;-80
2022/05/19 05:22:47;;;;;;;33.78;23.40;;;17.80;99.90;;;;;;4956948;28;20050;-81
2022/05/19 05:25:15;;;;;;;34.25;23.05;;;17.90;99.90;;;;;;4957026;28;20075;-81
2022/05/19 05:27:41;;;;;;;31.77;21.13;;;17.90;99.90;;;;;;4957186;28;20056;-82
2022/05/19 05:30:08;;;;;;;31.00;21.48;;;18.00;99.90;;;;;;4974552;28;20452;-80
2022/05/19 05:32:34;;;;;;;30.90;21.88;;;18.00;99.90;;;;;;4956930;28;20047;-80
2022/05/19 05:35:00;;;;;;;30.17;20.33;;;18.00;99.90;;;;;;4956817;28;20043;-81
2022/05/19 05:37:26;;;;;;;27.02;19.58;;;18.00;99.90;;;;;;4956764;28;20086;-80
2022/05/19 05:39:51;;;;;;;27.40;18.65;;;18.00;99.90;;;;;;4957024;28;20041;-82
2022/05/19 05:42:17;;;;;;;29.85;17.98;;;18.00;99.90;;;;;;4940740;28;20046;-81
2022/05/19 05:44:43;;;;;;;22.35;15.95;;;17.90;99.90;;;;;;4957217;28;20122;-82
2022/05/19 05:47:08;;;;;;;22.17;15.57;;;17.90;99.90;;;;;;4973940;28;20089;-82
2022/05/19 05:49:34;;;;;;;20.23;14.82;;;17.90;99.90;;;;;;4956873;28;20086;-81
2022/05/19 05:52:00;;;;;;;21.02;13.80;;;17.90;99.90;;;;;;4956880;28;20475;-81
2022/05/19 05:54:25;;;;;;;20.25;11.95;;;17.90;99.90;;;;;;4956525;28;20043;-82
2022/05/19 05:56:52;;;;;;;18.75;11.43;;;18.00;99.90;;;;;;4940627;28;20046;-82
2022/05/19 05:59:18;;;;;;;20.13;11.13;;;17.90;99.90;;;;;;4973785;28;20082;-82
2022/05/19 06:01:43;;;;;;;18.00;10.70;;;17.90;99.90;;;;;;4940547;28;20410;-82
2022/05/19 06:04:09;;;;;;;18.38;10.82;;;17.90;99.90;;;;;;4956885;28;20038;-81
2022/05/19 06:06:35;;;;;;;18.25;10.20;;;17.90;99.90;;;;;;4956710;28;20054;-80
2022/05/19 06:09:01;;;;;;;16.20;10.00;;;17.90;99.90;;;;;;4956359;28;20484;-80
2022/05/19 06:11:27;;;;;;;16.48;9.82;;;17.90;99.90;;;;;;4956354;28;20398;-82
2022/05/19 06:13:53;;;;;;;18.80;10.30;;;17.90;99.90;;;;;;4956739;28;20143;-81
2022/05/19 06:16:19;;;;;;;18.65;10.60;;;17.90;99.90;;;;;;4956561;28;20045;-82
2022/05/19 06:18:45;;;;;;;19.52;10.77;;;17.80;99.90;;;;;;4956976;28;20045;-82
2022/05/19 06:21:10;;;;;;;19.13;10.88;;;17.80;99.90;;;;;;4956860;28;20046;-82
2022/05/19 06:23:36;;;;;;;19.77;12.13;;;17.70;99.90;;;;;;4977260;28;20074;-82
2022/05/19 06:26:03;;;;;;;25.17;13.55;;;17.70;99.90;;;;;;4960132;28;20407;-81
2022/05/19 06:28:29;;;;;;;23.13;11.25;;;17.70;99.90;;;;;;4960783;28;20122;-83
2022/05/19 06:30:55;;;;;;;19.15;11.88;;;17.70;99.90;;;;;;4960214;28;20520;-83
2022/05/19 06:33:22;;;;;;;25.45;13.07;;;17.70;99.90;;;;;;4959700;28;20118;-81
2022/05/19 06:35:48;;;;;;;21.98;13.48;;;17.70;99.90;;;;;;4959868;28;20053;-84
2022/05/19 06:38:14;;;;;;;26.08;15.18;;;17.70;99.90;;;;;;4943769;28;20043;-81
2022/05/19 06:40:40;;;;;;;26.30;17.38;;;17.70;99.90;;;;;;4960226;28;20097;-81
2022/05/19 06:43:11;;;;;;;35.53;20.70;;;17.80;99.90;;;;;;4959688;28;20398;-81
2022/05/19 06:45:37;;;;;;;40.80;23.33;;;17.90;99.90;;;;;;4959517;28;20147;-82
2022/05/19 06:48:03;;;;;;;34.65;22.23;;;17.80;99.90;;;;;;4959575;28;20129;-83
2022/05/19 06:50:29;;;;;;;36.60;23.73;;;17.90;99.90;;;;;;4959361;28;20087;-81
2022/05/19 06:53:00;;;;;;;35.15;23.52;;;17.90;99.90;;;;;;4977037;28;20434;-82
2022/05/19 06:55:27;;;;;;;29.35;19.77;;;17.90;99.90;;;;;;4943512;28;20083;-81
2022/05/19 06:57:53;;;;;;;28.30;19.65;;;17.90;99.90;;;;;;4959274;28;20086;-81
2022/05/19 07:00:22;;;;;;;32.55;18.98;;;17.90;99.90;;;;;;4959169;28;20375;-83
2022/05/19 07:02:50;;;;;;;27.35;17.08;;;17.90;99.90;;;;;;4976849;28;20042;-81
2022/05/19 07:05:18;;;;;;;24.95;18.05;;;17.90;99.90;;;;;;4943099;28;20046;-82
2022/05/19 07:07:46;;;;;;;28.42;16.90;;;17.90;99.90;;;;;;4976499;28;20057;-83
2022/05/19 07:10:17;;;;;;;27.48;17.45;;;17.90;99.90;;;;;;4943146;28;20541;-81
2022/05/19 07:12:43;;;;;;;27.98;18.08;;;17.90;99.90;;;;;;4959259;28;20039;-84
2022/05/19 07:15:11;;;;;;;23.20;16.13;;;17.90;99.90;;;;;;4959231;28;20058;-83
2022/05/19 07:17:37;;;;;;;24.92;15.45;;;18.00;99.90;;;;;;4959578;28;20050;-83
2022/05/19 07:22:48;;;;;;;22.93;14.40;;;18.00;99.90;;;;;;4976666;28;20050;-81
2022/05/19 07:25:13;;;;;;;22.13;12.63;;;18.10;99.90;;;;;;4976510;28;20065;-84
2022/05/19 07:27:39;;;;;;;20.90;13.68;;;18.10;99.90;;;;;;4976409;28;20047;-81
2022/05/19 07:30:05;;;;;;;23.65;13.90;;;18.20;99.90;;;;;;4958566;28;20050;-81
2022/05/19 07:32:31;;;;;;;23.38;13.80;;;18.20;99.90;;;;;;4975880;28;20360;-83
2022/05/19 07:34:56;;;;;;;20.67;13.93;;;18.30;99.90;;;;;;4958300;28;20120;-83
2022/05/19 07:37:24;;;;;;;29.15;14.70;;;18.40;99.90;;;;;;4958793;28;20142;-81
2022/05/19 07:39:51;;;;;;;21.50;13.52;;;18.40;99.90;;;;;;4942710;28;20035;-81
2022/05/19 07:42:17;;;;;;;23.08;14.68;;;18.40;99.90;;;;;;4975990;28;20043;-83
2022/05/19 07:44:42;;;;;;;18.98;13.90;;;18.50;99.90;;;;;;4942357;28;20038;-84
2022/05/19 07:47:08;;;;;;;20.92;14.13;;;18.50;99.90;;;;;;4942444;28;20098;-81
2022/05/19 07:49:34;;;;;;;19.20;14.27;;;18.60;99.90;;;;;;4942328;28;20043;-81
2022/05/19 07:52:00;;;;;;;20.58;14.27;;;18.60;99.90;;;;;;4975916;28;20089;-81
2022/05/19 07:54:27;;;;;;;20.83;14.20;;;18.70;99.90;;;;;;4958333;28;20050;-81
2022/05/19 07:56:53;;;;;;;25.10;16.15;;;18.70;99.90;;;;;;4958392;28;20053;-82
2022/05/19 07:59:20;;;;;;;21.80;15.25;;;18.70;99.90;;;;;;4975679;28;20054;-82
2022/05/19 08:01:47;;;;;;;28.73;16.10;;;18.70;99.90;;;;;;4958004;28;20495;-82
2022/05/19 08:04:14;;;;;;;23.50;16.35;;;18.80;99.90;;;;;;4958060;28;20574;-81
2022/05/19 08:06:40;;;;;;;22.48;16.70;;;18.80;99.90;;;;;;4958042;28;20117;-83
2022/05/19 08:11:52;;;;;;;28.13;16.48;;;18.80;99.90;;;;;;4957965;28;20051;-83
2022/05/19 08:17:10;;;;;;;22.30;16.23;;;18.90;99.90;;;;;;4935789;28;20574;-81
2022/05/19 08:19:39;;;;;;;22.02;16.10;;;18.90;99.90;;;;;;4975327;28;20058;-82
2022/05/19 08:22:06;;;;;;;21.38;15.70;;;19.00;99.90;;;;;;4957770;28;20491;-85
2022/05/19 08:24:32;;;;;;;20.00;15.35;;;19.10;99.90;;;;;;4957584;28;20054;-83
2022/05/19 08:27:00;;;;;;;21.23;14.77;;;19.10;99.90;;;;;;4957542;28;20046;-81
2022/05/19 08:29:26;;;;;;;22.83;14.68;;;19.20;99.90;;;;;;4975015;28;20063;-83
2022/05/19 08:31:52;;;;;;;21.95;14.43;;;19.30;99.90;;;;;;4957601;28;20117;-81
2022/05/19 08:34:18;;;;;;;19.73;13.90;;;19.40;99.90;;;;;;4957325;28;20057;-82
2022/05/19 08:36:44;;;;;;;18.65;14.02;;;19.40;99.90;;;;;;4957968;28;20394;-82
2022/05/19 08:39:10;;;;;;;21.15;14.30;;;19.40;99.90;;;;;;4957526;28;20078;-82
2022/05/19 08:41:47;;;;;;;22.50;14.43;;;19.50;99.90;;;;;;4957419;28;20090;-82
2022/05/19 08:44:37;;;;;;;22.75;14.98;;;19.60;99.90;;;;;;4974295;28;20049;-83
2022/05/19 08:47:04;;;;;;;21.30;13.68;;;19.70;99.90;;;;;;4975398;28;20419;-81
2022/05/19 08:49:45;;;;;;;18.95;13.48;;;19.80;99.90;;;;;;4961776;28;20038;-78
2022/05/19 08:52:25;;;;;;;14.43;11.00;;;20.00;99.90;;;;;;4961663;28;20038;-79
2022/05/19 08:54:55;;;;;;;18.40;12.65;;;20.00;99.90;;;;;;4958168;28;20038;-82
2022/05/19 08:57:23;;;;;;;18.65;13.25;;;20.10;99.90;;;;;;4974960;28;20406;-81
2022/05/19 09:00:09;;;;;;;16.55;11.27;;;20.20;99.90;;;;;;4957563;28;20045;-82
2022/05/19 09:02:46;;;;;;;15.65;12.00;;;20.30;99.90;;;;;;4974405;28;20070;-80
2022/05/19 09:05:15;;;;;;;17.52;10.45;;;20.30;99.90;;;;;;4941520;28;20442;-82
2022/05/19 09:07:59;;;;;;;11.80;8.75;;;20.40;99.90;;;;;;4941510;28;20047;-82
2022/05/19 09:10:37;;;;;;;13.00;8.07;;;20.40;99.90;;;;;;4957129;28;20445;-83
2022/05/19 09:13:24;;;;;;;13.07;9.48;;;20.40;99.90;;;;;;4957155;28;20235;-82
2022/05/19 09:15:50;;;;;;;15.25;9.90;;;20.50;99.90;;;;;;4974377;28;20043;-81
2022/05/19 09:18:20;;;;;;;13.40;10.13;;;20.70;99.90;;;;;;4957251;28;20141;-82
2022/05/19 09:20:56;;;;;;;13.20;8.75;;;20.70;99.90;;;;;;4974554;28;20050;-82
2022/05/19 09:23:23;;;;;;;13.80;9.38;;;20.80;99.90;;;;;;4957305;28;20050;-82
2022/05/19 09:25:58;;;;;;;15.27;10.10;;;20.80;99.90;;;;;;4957332;28;20042;-79
2022/05/19 09:28:24;;;;;;;14.48;10.45;;;20.90;99.90;;;;;;4956942;28;20078;-81
2022/05/19 09:30:53;;;;;;;13.20;9.15;;;20.90;99.90;;;;;;4957239;28;20078;-81
2022/05/19 09:33:34;;;;;;;13.65;9.38;;;21.00;99.90;;;;;;4956977;28;20046;-82
2022/05/19 09:36:06;;;;;;;10.60;8.05;;;21.00;99.90;;;;;;4957228;28;20038;-81
2022/05/19 09:38:38;;;;;;;11.68;7.90;;;21.10;99.90;;;;;;4956875;28;20057;-81
2022/05/19 09:41:22;;;;;;;12.23;8.40;;;21.10;99.90;;;;;;4974502;28;20097;-82
2022/05/19 09:43:56;;;;;;;12.05;7.50;;;21.30;99.90;;;;;;4941230;28;20047;-82
2022/05/19 09:46:22;;;;;;;10.73;6.82;;;21.40;99.90;;;;;;4956722;28;20047;-82
2022/05/19 09:49:04;;;;;;;8.98;6.22;;;21.50;99.90;;;;;;4956844;28;20126;-82
2022/05/19 09:51:42;;;;;;;8.77;5.53;;;21.70;99.90;;;;;;4956716;28;20125;-82
2022/05/19 09:54:12;;;;;;;8.27;5.57;;;21.80;99.90;;;;;;4956827;28;20502;-82
2022/05/19 09:56:51;;;;;;;10.63;6.72;;;21.80;99.90;;;;;;4975714;28;20046;-81
2022/05/19 09:59:21;;;;;;;13.43;6.70;;;21.90;99.90;;;;;;4960345;28;20054;-80
2022/05/19 10:01:49;;;;;;;9.52;5.70;;;22.10;99.90;;;;;;4960170;28;20050;-81
2022/05/19 10:04:42;;;;;;;8.68;4.68;;;22.40;99.90;;;;;;4960332;28;20058;-82
2022/05/19 10:07:24;;;;;;;8.80;5.78;;;22.70;99.90;;;;;;4960534;28;20483;-82
2022/05/19 10:09:51;;;;;;;10.60;6.60;;;22.80;99.90;;;;;;4960466;28;20456;-82
2022/05/19 10:12:46;;;;;;;8.57;6.00;;;22.70;99.90;;;;;;4959947;28;20053;-81
2022/05/19 10:15:15;;;;;;;8.40;5.20;;;22.50;99.90;;;;;;4977706;28;20111;-81
2022/05/19 10:18:13;;;;;;;7.35;4.63;;;22.40;99.90;;;;;;4977528;28;20039;-81
2022/05/19 10:20:56;;;;;;;8.98;4.03;;;22.20;99.90;;;;;;4944233;28;20093;-82
2022/05/19 10:23:58;;;;;;;7.75;3.75;;;22.30;99.90;;;;;;4960273;28;20511;-80
2022/05/19 10:26:33;;;;;;;4.75;3.38;;;22.40;99.90;;;;;;4977799;28;20403;-81
2022/05/19 10:32:10;;;;;;;6.63;4.15;;;22.30;99.90;;;;;;4960238;28;19922;-82
2022/05/19 10:34:56;;;;;;;7.13;3.78;;;22.20;99.90;;;;;;4977269;28;20054;-81
2022/05/19 10:37:41;;;;;;;5.40;3.45;;;22.30;99.90;;;;;;4959922;28;20483;-81
2022/05/19 10:40:18;;;;;;;5.63;3.85;;;22.50;99.90;;;;;;4977059;28;20505;-83
2022/05/19 10:43:38;;;;;;;6.50;4.53;;;22.80;99.90;;;;;;4959534;28;20046;-81
2022/05/19 10:46:07;;;;;;;8.20;6.20;;;23.00;99.90;;;;;;4882652;29;20092;-80
2022/05/19 10:49:19;;;;;;;9.82;5.43;;;23.10;99.90;;;;;;4956043;28;20586;-81
2022/05/19 10:51:57;;;;;;;10.02;5.72;;;23.20;99.90;;;;;;4943097;28;20051;-81
2022/05/19 10:54:50;;;;;;;8.32;5.57;;;23.40;99.90;;;;;;4959338;28;20047;-81
2022/05/19 10:57:18;;;;;;;7.95;4.40;;;23.70;99.90;;;;;;4943543;28;20046;-81
2022/05/19 10:59:50;;;;;;;4.20;2.80;;;23.90;99.90;;;;;;4959184;28;20042;-82
2022/05/19 11:02:25;;;;;;;7.15;4.15;;;24.00;99.90;;;;;;4943019;28;20050;-81
2022/05/19 11:04:53;;;;;;;8.23;4.72;;;24.10;99.90;;;;;;4959212;28;20070;-81
2022/05/19 11:07:41;;;;;;;9.57;6.38;;;24.30;99.90;;;;;;4958775;28;20086;-81
2022/05/19 11:10:19;;;;;;;7.95;5.22;;;24.40;99.90;;;;;;4958943;28;20081;-81
2022/05/19 11:12:57;;;;;;;6.28;4.68;;;24.40;99.90;;;;;;4959230;28;20399;-81
2022/05/19 11:15:44;;;;;;;8.15;4.90;;;24.50;99.90;;;;;;4976670;28;20039;-82
2022/05/19 11:18:38;;;;;;;6.60;4.35;;;24.60;99.90;;;;;;4959040;28;20050;-80
2022/05/19 11:21:15;;;;;;;6.18;4.20;;;24.70;99.90;;;;;;4926164;28;20054;-82
2022/05/19 11:23:53;;;;;;;8.10;4.28;;;24.80;99.90;;;;;;4959079;28;20078;-82
2022/05/19 11:26:42;;;;;;;7.93;4.05;;;24.90;99.90;;;;;;4976317;28;20074;-80
2022/05/19 11:29:32;;;;;;;5.05;3.47;;;25.20;99.90;;;;;;4958672;28;20053;-81
2022/05/19 11:32:12;;;;;;;6.18;3.80;;;25.30;99.90;;;;;;4958622;28;20047;-80
2022/05/19 11:35:13;;;;;;;7.25;4.75;;;25.50;99.90;;;;;;4975860;28;20159;-81
2022/05/19 11:37:57;;;;;;;6.25;4.80;;;25.40;99.90;;;;;;4918912;28;20063;-81
2022/05/19 11:40:49;;;;;;;7.47;4.78;;;25.20;99.90;;;;;;4975940;28;20054;-81
2022/05/19 11:43:59;;;;;;;11.18;6.03;;;25.10;99.90;;;;;;4958472;28;20102;-81
2022/05/19 11:46:34;;;;;;;8.02;5.93;;;24.90;99.90;;;;;;4916439;28;20089;-81
2022/05/19 11:55:50;;;;;;;7.03;5.40;;;24.50;99.90;;;;;;4958185;28;20054;-80
2022/05/19 11:58:24;;;;;;;6.85;3.97;;;24.50;99.90;;;;;;4925995;28;20058;-81
2022/05/19 12:00:52;;;;;;;5.37;4.17;;;24.40;99.90;;;;;;4957852;28;20550;-82
2022/05/19 12:03:43;;;;;;;7.28;4.55;;;24.30;99.90;;;;;;4957982;28;20121;-81
2022/05/19 12:06:12;;;;;;;7.57;4.55;;;24.20;99.90;;;;;;4957983;28;20050;-81
2022/05/19 12:08:59;;;;;;;6.32;3.72;;;24.00;99.90;;;;;;4958027;28;20034;-80
2022/05/19 12:11:48;;;;;;;5.63;3.38;;;23.90;99.90;;;;;;4975718;28;20042;-81
2022/05/19 12:14:27;;;;;;;3.63;2.80;;;23.80;99.90;;;;;;4975191;28;20399;-81
2022/05/19 12:16:58;;;;;;;4.50;2.85;;;23.70;99.90;;;;;;4975681;28;20419;-81
2022/05/19 12:19:38;;;;;;;7.38;2.83;;;23.70;99.90;;;;;;4942050;28;20042;-80
2022/05/19 12:22:25;;;;;;;6.20;2.75;;;23.60;99.90;;;;;;4941701;28;20039;-80
2022/05/19 12:25:02;;;;;;;6.70;2.80;;;23.50;99.90;;;;;;4957624;28;20057;-81
2022/05/19 12:27:37;;;;;;;5.22;2.92;;;23.50;99.90;;;;;;4957935;28;20054;-81
2022/05/19 12:33:10;;;;;;;5.43;3.42;;;23.10;99.90;;;;;;4957533;28;20138;-80
2022/05/19 12:35:37;;;;;;;7.05;3.45;;;22.80;99.90;;;;;;4958403;28;20054;-82
2022/05/19 12:38:18;;;;;;;;;;;;;;;;;;;;;
2022/05/19 12:40:53;;;;;;;6.10;4.25;;;22.20;99.90;;;;;;4956917;28;20507;-81
2022/05/19 12:43:26;;;;;;;6.88;4.95;;;21.70;99.90;;;;;;4975149;28;20041;-81
2022/05/19 12:45:57;;;;;;;12.23;5.80;;;21.50;99.90;;;;;;4975098;28;20411;-81
2022/05/19 12:48:32;;;;;;;14.35;6.43;;;21.20;99.90;;;;;;4957770;28;20047;-81
2022/05/19 12:51:08;;;;;;;9.57;7.03;;;20.90;99.90;;;;;;4957401;28;20487;-81
2022/05/19 12:53:40;;;;;;;15.73;7.80;;;20.20;99.90;;;;;;4941704;28;20058;-80
2022/05/19 12:56:06;;;;;;;16.55;8.40;;;19.60;99.90;;;;;;4957501;28;20109;-82
2022/05/19 12:58:32;;;;;;;17.25;8.93;;;19.30;99.90;;;;;;4941500;28;20041;-83
2022/05/19 13:01:22;;;;;;;20.48;10.20;;;19.00;99.90;;;;;;4975693;28;20046;-80
2022/05/19 13:04:21;;;;;;;14.45;10.35;;;18.80;99.90;;;;;;4959316;28;20435;-83
2022/05/19 13:06:53;;;;;;;20.98;11.32;;;18.50;99.90;;;;;;4943665;28;20047;-83
2022/05/19 13:09:27;;;;;;;20.23;11.30;;;18.20;99.90;;;;;;4958168;28;20545;-82
2022/05/19 13:11:56;;;;;;;16.80;8.47;;;18.00;99.90;;;;;;4942247;28;20058;-83
2022/05/19 13:14:34;;;;;;;18.00;9.10;;;17.80;99.90;;;;;;4975119;28;20034;-84
2022/05/19 13:17:05;;;;;;;14.65;7.38;;;17.70;99.90;;;;;;4957440;28;20170;-82
2022/05/19 13:19:36;;;;;;;11.07;6.22;;;17.60;99.90;;;;;;4958212;28;20038;-83
2022/05/19 13:22:08;;;;;;;9.05;6.28;;;17.50;99.90;;;;;;4974873;28;20403;-82
2022/05/19 13:24:41;;;;;;;12.98;8.35;;;17.40;99.90;;;;;;4975273;28;20380;-83
2022/05/19 13:32:39;;;;;;;10.75;6.50;;;17.30;99.90;;;;;;4977822;28;20047;-82
2022/05/19 13:35:22;;;;;;;10.77;7.13;;;17.30;99.90;;;;;;4961115;28;20062;-84
2022/05/19 13:37:49;;;;;;;17.42;9.68;;;17.40;99.90;;;;;;4961350;28;20074;-83
2022/05/19 13:40:36;;;;;;;13.88;8.40;;;17.50;99.90;;;;;;4978599;28;20093;-84
2022/05/19 13:43:21;;;;;;;15.10;8.80;;;17.50;99.90;;;;;;4960982;28;20054;-82
2022/05/19 13:45:50;;;;;;;18.38;9.45;;;17.60;99.90;;;;;;4960765;28;20082;-82
2022/05/19 13:48:35;;;;;;;20.38;10.55;;;17.60;99.90;;;;;;4961036;28;20070;-83
2022/05/19 13:51:13;;;;;;;21.45;10.20;;;17.60;99.90;;;;;;4977962;28;20571;-83
2022/05/19 13:53:43;;;;;;;20.92;10.52;;;17.70;99.90;;;;;;4978526;28;20053;-82
2022/05/19 13:56:09;;;;;;;17.05;9.50;;;17.70;99.90;;;;;;4978349;28;20080;-82
2022/05/19 13:58:35;;;;;;;14.43;8.05;;;17.70;99.90;;;;;;4978205;28;20058;-84
2022/05/19 14:01:06;;;;;;;14.27;8.05;;;17.70;99.90;;;;;;4960489;28;20050;-83
2022/05/19 14:03:31;;;;;;;13.98;8.13;;;17.70;99.90;;;;;;4960450;28;20150;-81
2022/05/19 14:05:57;;;;;;;13.35;8.25;;;17.70;99.90;;;;;;4960485;28;20125;-84
2022/05/19 14:08:25;;;;;;;17.55;8.70;;;17.70;99.90;;;;;;4945148;28;20077;-83
2022/05/19 14:10:54;;;;;;;16.70;9.70;;;17.70;99.90;;;;;;4977700;28;20399;-82
2022/05/19 14:13:23;;;;;;;16.83;9.48;;;17.70;99.90;;;;;;4960961;28;20490;-82
2022/05/19 14:16:04;;;;;;;15.98;9.73;;;17.70;99.90;;;;;;4960713;28;20430;-83
2022/05/19 14:18:38;;;;;;;15.43;9.45;;;17.70;99.90;;;;;;4960396;28;20047;-82
2022/05/19 14:21:10;;;;;;;17.38;10.35;;;17.60;99.90;;;;;;4960126;28;20046;-84
2022/05/19 14:23:48;;;;;;;18.88;10.45;;;17.60;99.90;;;;;;4978103;28;20398;-83
2022/05/19 14:26:32;;;;;;;19.95;10.65;;;17.60;99.90;;;;;;4962552;28;20050;-82
2022/05/19 14:29:01;;;;;;;19.20;11.50;;;17.60;99.90;;;;;;4960867;28;20039;-83
2022/05/19 14:31:54;;;;;;;16.95;10.93;;;17.60;99.90;;;;;;4961529;28;20058;-84
2022/05/19 14:34:20;;;;;;;15.07;9.90;;;17.60;99.90;;;;;;4978580;28;20464;-83
2022/05/19 14:37:06;;;;;;;19.00;10.25;;;17.60;99.90;;;;;;4962528;28;20047;-83
2022/05/19 14:39:39;;;;;;;21.25;10.77;;;17.60;99.90;;;;;;4979535;28;20058;-83
2022/05/19 14:44:54;;;;;;;17.33;10.27;;;17.70;99.90;;;;;;4981061;28;20380;-84
2022/05/19 14:47:44;;;;;;;19.65;11.77;;;17.80;99.90;;;;;;4961817;28;20043;-84
2022/05/19 14:50:17;;;;;;;17.33;10.25;;;17.90;99.90;;;;;;4947840;28;20050;-83
2022/05/19 14:52:48;;;;;;;16.33;10.52;;;18.10;99.90;;;;;;4979118;28;20038;-84
2022/05/19 14:55:26;;;;;;;16.48;10.77;;;18.20;99.90;;;;;;4962401;28;20051;-82
2022/05/19 14:57:56;;;;;;;17.38;9.70;;;18.30;99.90;;;;;;4978664;28;20038;-83
2022/05/19 15:00:24;;;;;;;11.68;8.80;;;18.40;99.90;;;;;;4944812;28;20070;-85
2022/05/19 15:02:50;;;;;;;12.60;8.48;;;18.50;99.90;;;;;;4977747;28;20046;-84
2022/05/19 15:05:17;;;;;;;12.15;8.18;;;18.70;99.90;;;;;;4977725;28;20053;-83
2022/05/19 15:07:51;;;;;;;12.13;7.93;;;19.00;99.90;;;;;;4960226;28;20054;-83
2022/05/19 15:10:19;;;;;;;11.20;7.17;;;19.30;99.90;;;;;;4977075;28;20043;-86
2022/05/19 15:12:46;;;;;;;8.07;5.85;;;19.60;99.90;;;;;;4976787;28;20050;-82
2022/05/19 15:15:13;;;;;;;8.10;6.18;;;19.80;99.90;;;;;;4959540;28;20066;-83
2022/05/19 15:17:40;;;;;;;5.25;3.80;;;20.00;99.90;;;;;;4943724;28;20122;-83
2022/05/19 15:20:08;;;;;;;6.50;3.97;;;20.10;99.90;;;;;;4976627;28;20395;-83
2022/05/19 15:22:34;;;;;;;4.72;3.20;;;20.30;99.90;;;;;;4959207;28;20093;-83
2022/05/19 15:25:00;;;;;;;4.55;3.08;;;20.60;99.90;;;;;;4977118;28;20077;-85
2022/05/19 15:27:33;;;;;;;5.03;3.42;;;20.70;99.90;;;;;;4977385;28;20134;-82
2022/05/19 15:29:59;;;;;;;10.68;3.70;;;20.80;99.90;;;;;;4978089;28;20038;-82
2022/05/19 15:32:26;;;;;;;5.47;3.00;;;21.00;99.90;;;;;;4977308;28;20089;-83
2022/05/19 15:34:52;;;;;;;6.03;3.03;;;21.10;99.90;;;;;;4976929;28;20042;-81
2022/05/19 15:37:19;;;;;;;5.00;3.15;;;21.20;99.90;;;;;;4959770;28;20047;-82
2022/05/19 15:39:45;;;;;;;5.53;3.97;;;21.30;99.90;;;;;;4978042;28;20495;-82
2022/05/19 15:42:13;;;;;;;4.45;3.17;;;21.20;99.90;;;;;;4978030;28;20042;-82
2022/05/19 15:44:39;;;;;;;7.22;3.53;;;21.30;99.90;;;;;;4960105;28;20059;-83
2022/05/19 15:47:07;;;;;;;3.38;2.45;;;21.30;99.90;;;;;;4961529;28;20376;-83
2022/05/19 15:49:33;;;;;;;4.32;2.50;;;21.10;99.90;;;;;;4978769;28;20043;-83
2022/05/19 15:51:59;;;;;;;4.57;2.60;;;21.10;99.90;;;;;;4978422;28;20042;-83
2022/05/19 15:54:24;;;;;;;5.82;2.38;;;21.20;99.90;;;;;;4980718;28;20388;-81
2022/05/19 15:56:53;;;;;;;5.18;2.53;;;21.20;99.90;;;;;;4970340;28;20057;-82
2022/05/19 15:59:20;;;;;;;5.75;3.20;;;21.20;99.90;;;;;;4992318;28;20045;-79
2022/05/19 16:01:46;;;;;;;4.68;2.50;;;21.10;99.90;;;;;;4963308;28;20110;-84
2022/05/19 16:04:12;;;;;;;6.22;2.90;;;21.00;99.90;;;;;;4960423;28;20046;-82
2022/05/19 16:06:38;;;;;;;4.70;3.38;;;21.00;99.90;;;;;;4965703;28;20463;-82
2022/05/19 16:09:05;;;;;;;6.97;4.72;;;21.10;99.90;;;;;;4943960;28;20229;-83
2022/05/19 16:11:31;;;;;;;3.75;2.83;;;21.20;99.90;;;;;;4975933;28;20054;-83
2022/05/19 16:13:58;;;;;;;5.03;2.90;;;21.10;99.90;;;;;;4958103;28;20042;-82
2022/05/19 16:16:26;;;;;;;3.85;2.92;;;21.30;99.90;;;;;;4975707;28;20046;-84
2022/05/19 16:18:52;;;;;;;3.78;2.90;;;21.50;99.90;;;;;;4975334;28;20046;-83
2022/05/19 16:21:21;;;;;;;6.05;3.00;;;21.60;99.90;;;;;;4975334;28;20047;-82
2022/05/19 16:23:48;;;;;;;4.28;2.70;;;21.40;99.90;;;;;;4975328;28;20070;-83
2022/05/19 16:26:15;;;;;;;5.90;3.13;;;21.10;99.90;;;;;;4975276;28;20406;-82